createdAt,value
2018-03-18T00:00:45.355Z,1024.72
2018-03-18T00:02:12.428Z,1024.66
2018-03-18T00:03:39.295Z,1024.70
2018-03-18T00:05:06.096Z,1024.72
2018-03-18T00:06:33.100Z,1024.70
2018-03-18T00:08:00.151Z,1024.71
2018-03-18T00:09:27.047Z,1024.65
2018-03-18T00:10:54.116Z,1024.73
2018-03-18T00:12:20.950Z,1024.75
2018-03-18T00:13:47.825Z,1024.69
2018-03-18T00:15:14.720Z,1024.68
2018-03-18T00:16:41.643Z,1024.74
2018-03-18T00:18:08.602Z,1024.74
2018-03-18T00:19:35.451Z,1024.70
2018-03-18T00:21:02.336Z,1024.76
2018-03-18T00:22:29.326Z,1024.76
2018-03-18T00:23:56.263Z,1024.88
2018-03-18T00:25:23.194Z,1024.71
2018-03-18T00:26:49.948Z,1024.82
2018-03-18T00:28:17.025Z,1024.81
2018-03-18T00:29:43.996Z,1024.84
2018-03-18T00:31:11.032Z,1024.73
2018-03-18T00:32:37.908Z,1024.75
2018-03-18T00:34:05.043Z,1024.84
2018-03-18T00:35:32.024Z,1024.83
2018-03-18T00:36:59.142Z,1024.84
2018-03-18T00:38:26.109Z,1024.81
2018-03-18T00:39:53.152Z,1024.81
2018-03-18T00:41:20.249Z,1024.79
2018-03-18T00:42:47.265Z,1024.82
2018-03-18T00:44:14.254Z,1024.83
2018-03-18T00:45:41.257Z,1024.80
2018-03-18T00:47:07.997Z,1024.87
2018-03-18T00:48:35.028Z,1024.81
2018-03-18T00:50:02.059Z,1024.78
2018-03-18T00:51:28.933Z,1024.79
2018-03-18T00:52:55.855Z,1024.77
2018-03-18T00:54:22.791Z,1024.80
2018-03-18T00:55:49.843Z,1024.81
2018-03-18T00:57:16.829Z,1024.81
2018-03-18T00:58:43.858Z,1024.81
2018-03-18T01:00:12.014Z,1024.84
2018-03-18T01:01:37.837Z,1024.75
2018-03-18T01:03:05.068Z,1024.79
2018-03-18T01:04:32.121Z,1024.73
2018-03-18T01:05:59.166Z,1024.79
2018-03-18T01:07:25.912Z,1024.73
2018-03-18T01:08:52.557Z,1024.73
2018-03-18T01:10:19.619Z,1024.81
2018-03-18T01:11:46.660Z,1024.79
2018-03-18T01:13:13.649Z,1024.87
2018-03-18T01:14:40.581Z,1024.78
2018-03-18T01:16:07.329Z,1024.77
2018-03-18T01:17:34.324Z,1024.81
2018-03-18T01:19:01.364Z,1024.80
2018-03-18T01:20:28.513Z,1024.81
2018-03-18T01:21:55.340Z,1024.85
2018-03-18T01:23:22.184Z,1024.84
2018-03-18T01:24:49.159Z,1024.83
2018-03-18T01:26:15.886Z,1024.82
2018-03-18T01:27:42.731Z,1024.86
2018-03-18T01:29:09.516Z,1024.84
2018-03-18T01:30:36.028Z,1024.91
2018-03-18T01:32:03.823Z,1024.91
2018-03-18T01:33:29.653Z,1024.82
2018-03-18T01:34:56.497Z,1024.83
2018-03-18T01:36:23.328Z,1024.80
2018-03-18T01:37:50.394Z,1024.84
2018-03-18T01:39:17.308Z,1024.95
2018-03-18T01:40:44.346Z,1024.82
2018-03-18T01:42:11.160Z,1024.82
2018-03-18T01:43:38.103Z,1024.80
2018-03-18T01:45:04.909Z,1024.89
2018-03-18T01:46:31.958Z,1024.85
2018-03-18T01:47:58.705Z,1024.86
2018-03-18T01:49:25.610Z,1024.85
2018-03-18T01:50:52.497Z,1024.85
2018-03-18T01:52:19.679Z,1024.85
2018-03-18T01:53:46.540Z,1024.85
2018-03-18T01:55:13.526Z,1024.87
2018-03-18T01:56:40.534Z,1024.84
2018-03-18T01:58:07.629Z,1024.85
2018-03-18T01:59:34.546Z,1024.85
2018-03-18T02:01:01.726Z,1024.95
2018-03-18T02:02:28.549Z,1024.86
2018-03-18T02:03:55.343Z,1024.89
2018-03-18T02:05:22.144Z,1024.88
2018-03-18T02:06:48.930Z,1024.86
2018-03-18T02:08:15.838Z,1024.82
2018-03-18T02:09:42.702Z,1024.85
2018-03-18T02:11:09.578Z,1024.85
2018-03-18T02:12:36.287Z,1024.78
2018-03-18T02:14:03.327Z,1024.80
2018-03-18T02:15:30.417Z,1024.82
2018-03-18T02:16:57.235Z,1024.84
2018-03-18T02:18:24.164Z,1024.85
2018-03-18T02:19:51.137Z,1024.80
2018-03-18T02:21:18.202Z,1024.84
2018-03-18T02:22:45.118Z,1024.79
2018-03-18T02:24:13.933Z,1024.83
2018-03-18T02:25:39.045Z,1024.79
2018-03-18T02:27:05.742Z,1024.81
2018-03-18T02:28:32.758Z,1024.79
2018-03-18T02:29:59.526Z,1024.76
2018-03-18T02:31:26.678Z,1024.79
2018-03-18T02:32:53.564Z,1024.81
2018-03-18T02:34:20.458Z,1024.79
2018-03-18T02:35:47.450Z,1024.78
2018-03-18T02:37:16.362Z,1024.84
2018-03-18T02:38:41.426Z,1024.81
2018-03-18T02:40:08.136Z,1024.80
2018-03-18T02:41:34.817Z,1024.82
2018-03-18T02:43:01.810Z,1024.84
2018-03-18T02:44:28.650Z,1024.81
2018-03-18T02:45:55.620Z,1024.81
2018-03-18T02:47:22.584Z,1024.81
2018-03-18T02:48:49.471Z,1024.84
2018-03-18T02:50:16.629Z,1024.82
2018-03-18T02:51:43.171Z,1024.80
2018-03-18T02:53:09.997Z,1024.81
2018-03-18T02:54:36.769Z,1024.81
2018-03-18T02:56:03.701Z,1024.84
2018-03-18T02:57:30.366Z,1024.79
2018-03-18T02:58:57.119Z,1024.80
2018-03-18T03:00:24.205Z,1024.82
2018-03-18T03:01:51.325Z,1024.84
2018-03-18T03:03:18.097Z,1024.83
2018-03-18T03:04:44.935Z,1024.85
2018-03-18T03:06:11.950Z,1024.82
2018-03-18T03:07:38.969Z,1024.83
2018-03-18T03:09:05.791Z,1024.88
2018-03-18T03:10:32.459Z,1024.85
2018-03-18T03:11:59.341Z,1024.84
2018-03-18T03:13:26.411Z,1024.85
2018-03-18T03:14:53.339Z,1024.88
2018-03-18T03:16:20.146Z,1024.91
2018-03-18T03:17:47.100Z,1024.88
2018-03-18T03:19:14.203Z,1024.90
2018-03-18T03:20:41.094Z,1024.90
2018-03-18T03:22:07.857Z,1024.92
2018-03-18T03:23:35.109Z,1024.87
2018-03-18T03:25:01.928Z,1024.91
2018-03-18T03:26:28.911Z,1024.94
2018-03-18T03:27:55.728Z,1024.89
2018-03-18T03:29:22.800Z,1024.90
2018-03-18T03:30:49.863Z,1024.91
2018-03-18T03:32:17.010Z,1024.89
2018-03-18T03:33:43.989Z,1024.91
2018-03-18T03:35:10.714Z,1024.89
2018-03-18T03:36:37.572Z,1024.90
2018-03-18T03:38:04.644Z,1024.86
2018-03-18T03:39:31.633Z,1024.96
2018-03-18T03:40:58.473Z,1024.89
2018-03-18T03:42:25.406Z,1024.91
2018-03-18T03:43:52.175Z,1024.92
2018-03-18T03:45:19.140Z,1024.87
2018-03-18T03:46:45.963Z,1024.92
2018-03-18T03:48:12.978Z,1024.90
2018-03-18T03:49:39.946Z,1024.95
2018-03-18T03:51:06.713Z,1024.89
2018-03-18T03:52:33.809Z,1024.98
2018-03-18T03:54:00.514Z,1024.89
2018-03-18T03:55:27.467Z,1024.88
2018-03-18T03:56:54.394Z,1024.84
2018-03-18T03:58:21.408Z,1024.86
2018-03-18T03:59:48.510Z,1024.90
2018-03-18T04:01:15.429Z,1024.88
2018-03-18T04:02:42.337Z,1024.94
2018-03-18T04:04:09.199Z,1024.90
2018-03-18T04:05:35.841Z,1024.89
2018-03-18T04:07:02.623Z,1024.94
2018-03-18T04:08:29.669Z,1024.92
2018-03-18T04:09:56.359Z,1024.94
2018-03-18T04:11:23.455Z,1024.94
2018-03-18T04:12:50.305Z,1024.96
2018-03-18T04:14:17.164Z,1024.98
2018-03-18T04:15:44.160Z,1024.96
2018-03-18T04:17:11.146Z,1024.95
2018-03-18T04:18:38.243Z,1024.97
2018-03-18T04:20:04.780Z,1024.97
2018-03-18T04:21:31.796Z,1024.95
2018-03-18T04:22:58.836Z,1024.97
2018-03-18T04:24:25.470Z,1024.97
2018-03-18T04:25:52.602Z,1024.96
2018-03-18T04:27:19.468Z,1024.94
2018-03-18T04:28:46.577Z,1024.97
2018-03-18T04:30:13.500Z,1024.98
2018-03-18T04:31:40.317Z,1025.01
2018-03-18T04:33:07.116Z,1025.01
2018-03-18T04:34:34.101Z,1025.03
2018-03-18T04:36:01.301Z,1025.04
2018-03-18T04:37:28.283Z,1025.13
2018-03-18T04:38:55.347Z,1025.10
2018-03-18T04:40:22.251Z,1025.09
2018-03-18T04:41:49.323Z,1025.15
2018-03-18T04:43:16.283Z,1025.17
2018-03-18T04:44:43.083Z,1025.18
2018-03-18T04:46:10.017Z,1025.20
2018-03-18T04:47:36.899Z,1025.20
2018-03-18T04:49:03.866Z,1025.27
2018-03-18T04:50:30.912Z,1025.26
2018-03-18T04:51:58.018Z,1025.18
2018-03-18T04:53:24.817Z,1025.26
2018-03-18T04:54:51.699Z,1025.26
2018-03-18T04:56:18.886Z,1025.24
2018-03-18T04:57:45.749Z,1025.29
2018-03-18T04:59:12.694Z,1025.28
2018-03-18T05:00:39.465Z,1025.27
2018-03-18T05:02:06.241Z,1025.33
2018-03-18T05:03:33.194Z,1025.25
2018-03-18T05:05:00.024Z,1025.25
2018-03-18T05:06:27.086Z,1025.35
2018-03-18T05:07:54.078Z,1025.33
2018-03-18T05:09:21.049Z,1025.28
2018-03-18T05:10:48.106Z,1025.28
2018-03-18T05:12:15.095Z,1025.28
2018-03-18T05:13:42.056Z,1025.32
2018-03-18T05:15:08.913Z,1025.32
2018-03-18T05:16:35.561Z,1025.30
2018-03-18T05:18:02.483Z,1025.37
2018-03-18T05:19:29.308Z,1025.40
2018-03-18T05:20:56.063Z,1025.39
2018-03-18T05:22:23.156Z,1025.36
2018-03-18T05:23:50.195Z,1025.37
2018-03-18T05:25:17.184Z,1025.42
2018-03-18T05:26:43.844Z,1025.36
2018-03-18T05:28:10.598Z,1025.38
2018-03-18T05:29:37.424Z,1025.41
2018-03-18T05:31:04.514Z,1025.36
2018-03-18T05:32:31.470Z,1025.36
2018-03-18T05:33:58.610Z,1025.39
2018-03-18T05:35:25.457Z,1025.45
2018-03-18T05:36:52.385Z,1025.47
2018-03-18T05:38:19.444Z,1025.45
2018-03-18T05:39:46.458Z,1025.51
2018-03-18T05:41:13.454Z,1025.48
2018-03-18T05:42:40.305Z,1025.63
2018-03-18T05:44:07.226Z,1025.46
2018-03-18T05:45:34.036Z,1025.51
2018-03-18T05:47:01.047Z,1025.45
2018-03-18T05:48:27.806Z,1025.50
2018-03-18T05:49:54.682Z,1025.50
2018-03-18T05:51:21.522Z,1025.57
2018-03-18T05:52:48.525Z,1025.52
2018-03-18T05:54:15.462Z,1025.57
2018-03-18T05:55:42.481Z,1025.58
2018-03-18T05:57:09.397Z,1025.60
2018-03-18T05:58:36.323Z,1025.61
2018-03-18T06:00:03.271Z,1025.54
2018-03-18T06:01:30.232Z,1025.57
2018-03-18T06:02:57.193Z,1025.53
2018-03-18T06:04:24.353Z,1025.57
2018-03-18T06:05:51.451Z,1025.53
2018-03-18T06:07:18.444Z,1025.52
2018-03-18T06:08:45.254Z,1025.59
2018-03-18T06:10:12.265Z,1025.59
2018-03-18T06:11:39.353Z,1025.60
2018-03-18T06:13:06.105Z,1025.59
2018-03-18T06:14:33.193Z,1025.60
2018-03-18T06:16:00.168Z,1025.51
2018-03-18T06:17:27.058Z,1025.57
2018-03-18T06:18:54.127Z,1025.59
2018-03-18T06:20:21.026Z,1025.65
2018-03-18T06:21:48.039Z,1025.63
2018-03-18T06:23:14.622Z,1025.68
2018-03-18T06:24:41.593Z,1025.63
2018-03-18T06:26:08.495Z,1025.68
2018-03-18T06:27:35.598Z,1025.65
2018-03-18T06:29:02.664Z,1025.71
2018-03-18T06:30:29.707Z,1025.74
2018-03-18T06:31:56.596Z,1025.86
2018-03-18T06:33:23.523Z,1025.80
2018-03-18T06:34:50.284Z,1025.77
2018-03-18T06:36:17.040Z,1025.83
2018-03-18T06:37:44.009Z,1025.80
2018-03-18T06:39:10.911Z,1025.87
2018-03-18T06:40:38.048Z,1025.87
2018-03-18T06:42:04.777Z,1025.92
2018-03-18T06:43:31.819Z,1025.88
2018-03-18T06:44:58.768Z,1025.80
2018-03-18T06:46:25.731Z,1025.83
2018-03-18T06:47:52.869Z,1025.81
2018-03-18T06:49:19.718Z,1025.82
2018-03-18T06:50:46.720Z,1025.84
2018-03-18T06:52:13.608Z,1025.92
2018-03-18T06:53:40.686Z,1025.83
2018-03-18T06:55:07.434Z,1025.88
2018-03-18T06:56:34.554Z,1025.91
2018-03-18T06:58:01.429Z,1025.90
2018-03-18T06:59:28.524Z,1025.88
2018-03-18T07:00:55.478Z,1025.95
2018-03-18T07:02:22.332Z,1025.88
2018-03-18T07:03:49.364Z,1025.88
2018-03-18T07:05:16.377Z,1025.84
2018-03-18T07:06:43.169Z,1025.89
2018-03-18T07:08:10.104Z,1025.91
2018-03-18T07:09:37.067Z,1025.94
2018-03-18T07:11:04.179Z,1025.88
2018-03-18T07:12:31.306Z,1025.88
2018-03-18T07:13:58.159Z,1025.87
2018-03-18T07:15:25.115Z,1025.93
2018-03-18T07:16:52.148Z,1025.94
2018-03-18T07:18:18.982Z,1025.94
2018-03-18T07:19:45.954Z,1025.99
2018-03-18T07:21:12.949Z,1025.95
2018-03-18T07:22:39.874Z,1025.93
2018-03-18T07:24:06.844Z,1025.93
2018-03-18T07:25:33.757Z,1025.96
2018-03-18T07:27:00.801Z,1025.98
2018-03-18T07:28:27.554Z,1025.98
2018-03-18T07:29:54.696Z,1025.96
2018-03-18T07:31:21.608Z,1025.99
2018-03-18T07:32:48.386Z,1026.01
2018-03-18T07:34:15.289Z,1025.95
2018-03-18T07:35:42.380Z,1025.95
2018-03-18T07:37:09.169Z,1025.96
2018-03-18T07:38:36.019Z,1026.00
2018-03-18T07:40:04.018Z,1025.97
2018-03-18T07:41:30.218Z,1025.93
2018-03-18T07:42:57.145Z,1025.96
2018-03-18T07:44:24.037Z,1025.92
2018-03-18T07:45:51.054Z,1026.04
2018-03-18T07:47:18.102Z,1025.91
2018-03-18T07:48:45.006Z,1025.89
2018-03-18T07:50:12.074Z,1025.95
2018-03-18T07:51:38.871Z,1025.93
2018-03-18T07:53:05.739Z,1025.95
2018-03-18T07:54:32.964Z,1025.92
2018-03-18T07:55:59.865Z,1025.95
2018-03-18T07:57:26.911Z,1025.93
2018-03-18T07:58:53.742Z,1025.92
2018-03-18T08:00:20.540Z,1025.91
2018-03-18T08:01:47.644Z,1025.95
2018-03-18T08:03:14.383Z,1025.96
2018-03-18T08:04:41.216Z,1025.96
2018-03-18T08:06:08.180Z,1025.93
2018-03-18T08:07:35.080Z,1026.01
2018-03-18T08:09:02.214Z,1026.00
2018-03-18T08:10:29.009Z,1026.02
2018-03-18T08:11:56.040Z,1025.97
2018-03-18T08:13:23.008Z,1025.99
2018-03-18T08:14:50.165Z,1025.94
2018-03-18T08:16:16.888Z,1025.89
2018-03-18T08:17:43.998Z,1025.89
2018-03-18T08:19:11.002Z,1025.88
2018-03-18T08:20:37.811Z,1025.90
2018-03-18T08:22:04.695Z,1025.86
2018-03-18T08:23:31.706Z,1025.87
2018-03-18T08:24:58.889Z,1025.84
2018-03-18T08:26:25.950Z,1025.81
2018-03-18T08:27:53.103Z,1025.83
2018-03-18T08:29:20.179Z,1025.91
2018-03-18T08:30:47.072Z,1025.88
2018-03-18T08:32:14.169Z,1025.87
2018-03-18T08:33:41.079Z,1025.87
2018-03-18T08:35:07.864Z,1025.90
2018-03-18T08:36:34.728Z,1025.93
2018-03-18T08:38:01.845Z,1025.91
2018-03-18T08:39:28.888Z,1025.87
2018-03-18T08:40:55.799Z,1025.87
2018-03-18T08:42:22.741Z,1025.81
2018-03-18T08:43:49.948Z,1025.83
2018-03-18T08:45:16.835Z,1025.81
2018-03-18T08:46:43.547Z,1025.85
2018-03-18T08:48:10.630Z,1025.84
2018-03-18T08:49:37.641Z,1025.85
2018-03-18T08:51:04.753Z,1025.83
2018-03-18T08:52:31.589Z,1025.87
2018-03-18T08:53:58.695Z,1025.78
2018-03-18T08:55:25.775Z,1025.83
2018-03-18T08:56:52.793Z,1025.79
2018-03-18T08:58:19.629Z,1025.76
2018-03-18T08:59:46.493Z,1025.74
2018-03-18T09:01:13.410Z,1025.76
2018-03-18T09:02:40.206Z,1025.77
2018-03-18T09:04:07.059Z,1025.73
2018-03-18T09:05:34.053Z,1025.69
2018-03-18T09:07:00.825Z,1025.72
2018-03-18T09:08:28.087Z,1025.72
2018-03-18T09:09:55.075Z,1025.78
2018-03-18T09:11:22.071Z,1025.67
2018-03-18T09:12:49.214Z,1025.68
2018-03-18T09:14:16.211Z,1025.65
2018-03-18T09:15:43.232Z,1025.62
2018-03-18T09:17:10.208Z,1025.63
2018-03-18T09:18:37.088Z,1025.69
2018-03-18T09:20:04.028Z,1025.62
2018-03-18T09:21:31.063Z,1025.65
2018-03-18T09:22:57.836Z,1025.62
2018-03-18T09:24:24.739Z,1025.59
2018-03-18T09:25:51.795Z,1025.62
2018-03-18T09:27:18.773Z,1025.66
2018-03-18T09:28:45.870Z,1025.62
2018-03-18T09:30:12.866Z,1025.62
2018-03-18T09:31:39.872Z,1025.62
2018-03-18T09:33:06.735Z,1025.61
2018-03-18T09:34:33.845Z,1025.61
2018-03-18T09:36:00.783Z,1025.67
2018-03-18T09:37:27.723Z,1025.66
2018-03-18T09:38:54.618Z,1025.61
2018-03-18T09:40:21.580Z,1025.61
2018-03-18T09:41:48.474Z,1025.60
2018-03-18T09:43:15.440Z,1025.63
2018-03-18T09:44:42.424Z,1025.58
2018-03-18T09:46:09.362Z,1025.53
2018-03-18T09:47:36.418Z,1025.60
2018-03-18T09:49:03.561Z,1025.51
2018-03-18T09:50:30.585Z,1025.55
2018-03-18T09:51:57.699Z,1025.54
2018-03-18T09:53:24.889Z,1025.49
2018-03-18T09:54:52.217Z,1025.48
2018-03-18T09:56:19.247Z,1025.53
2018-03-18T09:57:46.242Z,1025.44
2018-03-18T09:59:13.284Z,1025.48
2018-03-18T10:00:40.301Z,1025.45
2018-03-18T10:02:07.368Z,1025.50
2018-03-18T10:03:34.695Z,1025.49
2018-03-18T10:05:01.675Z,1025.50
2018-03-18T10:06:28.787Z,1025.45
2018-03-18T10:07:55.841Z,1025.45
2018-03-18T10:09:22.782Z,1025.46
2018-03-18T10:10:49.886Z,1025.44
2018-03-18T10:12:16.639Z,1025.45
2018-03-18T10:13:43.829Z,1025.46
2018-03-18T10:15:10.614Z,1025.37
2018-03-18T10:16:37.459Z,1025.41
2018-03-18T10:18:04.450Z,1025.40
2018-03-18T10:19:31.523Z,1025.42
2018-03-18T10:20:58.381Z,1025.48
2018-03-18T10:22:25.246Z,1025.40
2018-03-18T10:23:52.352Z,1025.37
2018-03-18T10:25:19.248Z,1025.34
2018-03-18T10:26:46.215Z,1025.26
2018-03-18T10:28:13.245Z,1025.28
2018-03-18T10:29:40.350Z,1025.28
2018-03-18T10:31:07.262Z,1025.30
2018-03-18T10:32:34.327Z,1025.25
2018-03-18T10:34:01.529Z,1025.26
2018-03-18T10:35:28.493Z,1025.20
2018-03-18T10:36:55.635Z,1025.18
2018-03-18T10:38:22.872Z,1025.23
2018-03-18T10:39:49.965Z,1025.16
2018-03-18T10:41:16.946Z,1025.15
2018-03-18T10:42:44.041Z,1025.16
2018-03-18T10:44:11.084Z,1025.23
2018-03-18T10:45:38.012Z,1025.23
2018-03-18T10:47:05.281Z,1025.25
2018-03-18T10:48:32.366Z,1025.17
2018-03-18T10:49:59.563Z,1025.11
2018-03-18T10:51:26.710Z,1025.13
2018-03-18T10:52:53.941Z,1025.13
2018-03-18T10:54:20.989Z,1025.12
2018-03-18T10:55:48.260Z,1025.09
2018-03-18T10:57:15.388Z,1025.16
2018-03-18T10:58:42.340Z,1025.15
2018-03-18T11:00:09.498Z,1025.16
2018-03-18T11:01:36.266Z,1025.11
2018-03-18T11:03:03.410Z,1025.12
2018-03-18T11:04:30.675Z,1025.09
2018-03-18T11:05:57.742Z,1025.06
2018-03-18T11:07:24.882Z,1025.07
2018-03-18T11:08:51.942Z,1025.08
2018-03-18T11:10:19.106Z,1025.22
2018-03-18T11:11:46.245Z,1025.17
2018-03-18T11:13:13.397Z,1025.16
2018-03-18T11:14:40.413Z,1025.11
2018-03-18T11:16:07.253Z,1025.06
2018-03-18T11:17:35.153Z,1025.12
2018-03-18T11:19:01.303Z,1025.02
2018-03-18T11:20:28.493Z,1025.03
2018-03-18T11:21:55.671Z,1025.04
2018-03-18T11:23:22.779Z,1025.16
2018-03-18T11:24:49.955Z,1025.00
2018-03-18T11:26:17.100Z,1024.97
2018-03-18T11:27:44.350Z,1025.09
2018-03-18T11:29:11.387Z,1025.09
2018-03-18T11:30:38.514Z,1025.02
2018-03-18T11:32:05.564Z,1025.02
2018-03-18T11:33:32.721Z,1024.98
2018-03-18T11:34:59.735Z,1024.97
2018-03-18T11:36:27.147Z,1024.96
2018-03-18T11:37:54.322Z,1024.94
2018-03-18T11:39:21.353Z,1024.96
2018-03-18T11:40:48.469Z,1024.99
2018-03-18T11:42:15.647Z,1024.91
2018-03-18T11:43:42.809Z,1024.88
2018-03-18T11:45:09.915Z,1024.87
2018-03-18T11:46:36.831Z,1024.88
2018-03-18T11:48:04.106Z,1024.97
2018-03-18T11:49:31.074Z,1024.89
2018-03-18T11:50:58.053Z,1024.80
2018-03-18T11:52:25.188Z,1024.85
2018-03-18T11:53:52.284Z,1024.80
2018-03-18T11:55:19.439Z,1024.81
2018-03-18T11:56:46.539Z,1024.80
2018-03-18T11:58:13.782Z,1024.84
2018-03-18T11:59:40.649Z,1024.86
2018-03-18T12:01:07.743Z,1024.90
2018-03-18T12:02:34.891Z,1024.76
2018-03-18T12:04:02.030Z,1024.75
2018-03-18T12:05:29.092Z,1024.67
2018-03-18T12:06:56.127Z,1024.61
2018-03-18T12:08:23.031Z,1024.61
2018-03-18T12:09:50.256Z,1024.57
2018-03-18T12:11:17.229Z,1024.55
2018-03-18T12:12:44.261Z,1024.56
2018-03-18T12:14:11.531Z,1024.54
2018-03-18T12:15:38.652Z,1024.60
2018-03-18T12:17:05.638Z,1024.57
2018-03-18T12:18:32.774Z,1024.61
2018-03-18T12:19:59.774Z,1024.62
2018-03-18T12:21:27.834Z,1024.63
2018-03-18T12:22:53.895Z,1024.56
2018-03-18T12:24:21.027Z,1024.52
2018-03-18T12:25:48.277Z,1024.49
2018-03-18T12:27:15.546Z,1024.53
2018-03-18T12:28:42.645Z,1024.50
2018-03-18T12:30:09.569Z,1024.41
2018-03-18T12:31:36.440Z,1024.38
2018-03-18T12:33:03.699Z,1024.46
2018-03-18T12:34:30.787Z,1024.53
2018-03-18T12:35:57.961Z,1024.48
2018-03-18T12:37:25.138Z,1024.46
2018-03-18T12:38:52.321Z,1024.47
2018-03-18T12:40:19.372Z,1024.49
2018-03-18T12:41:46.480Z,1024.36
2018-03-18T12:43:13.547Z,1024.43
2018-03-18T12:44:40.573Z,1024.34
2018-03-18T12:46:07.625Z,1024.46
2018-03-18T12:47:34.847Z,1024.42
2018-03-18T12:49:02.071Z,1024.39
2018-03-18T12:50:29.209Z,1024.36
2018-03-18T12:51:56.306Z,1024.38
2018-03-18T12:53:23.461Z,1024.32
2018-03-18T12:54:50.626Z,1024.30
2018-03-18T12:56:17.667Z,1024.29
2018-03-18T12:57:44.996Z,1024.25
2018-03-18T12:59:12.039Z,1024.24
2018-03-18T13:00:39.162Z,1024.27
2018-03-18T13:02:06.374Z,1024.21
2018-03-18T13:03:33.649Z,1024.13
2018-03-18T13:05:00.981Z,1024.09
2018-03-18T13:06:28.104Z,1024.19
2018-03-18T13:07:55.266Z,1024.15
2018-03-18T13:09:22.557Z,1024.13
2018-03-18T13:10:49.742Z,1024.09
2018-03-18T13:12:16.826Z,1024.09
2018-03-18T13:13:43.989Z,1024.06
2018-03-18T13:15:11.164Z,1024.06
2018-03-18T13:16:38.193Z,1024.08
2018-03-18T13:18:05.393Z,1024.06
2018-03-18T13:19:32.562Z,1024.07
2018-03-18T13:20:59.480Z,1024.07
2018-03-18T13:22:26.703Z,1024.10
2018-03-18T13:23:53.886Z,1024.09
2018-03-18T13:25:21.060Z,1024.09
2018-03-18T13:26:48.272Z,1024.01
2018-03-18T13:28:15.416Z,1024.06
2018-03-18T13:29:42.338Z,1024.05
2018-03-18T13:31:09.331Z,1023.96
2018-03-18T13:32:36.202Z,1024.02
2018-03-18T13:34:03.297Z,1023.97
2018-03-18T13:35:30.546Z,1023.93
2018-03-18T13:36:57.803Z,1023.94
2018-03-18T13:38:24.996Z,1023.90
2018-03-18T13:39:52.122Z,1023.93
2018-03-18T13:41:19.247Z,1023.91
2018-03-18T13:42:46.560Z,1023.85
2018-03-18T13:44:13.640Z,1023.87
2018-03-18T13:45:40.914Z,1023.85
2018-03-18T13:47:07.874Z,1023.87
2018-03-18T13:48:35.082Z,1023.80
2018-03-18T13:50:02.404Z,1023.79
2018-03-18T13:51:29.453Z,1023.78
2018-03-18T13:52:56.627Z,1023.76
2018-03-18T13:54:23.818Z,1023.78
2018-03-18T13:55:50.961Z,1023.73
2018-03-18T13:57:17.983Z,1023.72
2018-03-18T13:58:45.751Z,1023.72
2018-03-18T14:00:12.101Z,1023.71
2018-03-18T14:01:39.253Z,1023.70
2018-03-18T14:03:06.070Z,1023.69
2018-03-18T14:04:33.180Z,1023.67
2018-03-18T14:06:00.560Z,1023.70
2018-03-18T14:07:27.511Z,1023.71
2018-03-18T14:08:54.646Z,1023.64
2018-03-18T14:10:21.791Z,1023.60
2018-03-18T14:11:49.072Z,1023.68
2018-03-18T14:13:16.177Z,1023.63
2018-03-18T14:14:43.348Z,1023.63
2018-03-18T14:16:10.522Z,1023.67
2018-03-18T14:17:37.495Z,1023.62
2018-03-18T14:19:04.497Z,1023.59
2018-03-18T14:20:31.688Z,1023.56
2018-03-18T14:21:58.916Z,1023.56
2018-03-18T14:23:25.970Z,1023.54
2018-03-18T14:24:53.084Z,1023.55
2018-03-18T14:26:20.221Z,1023.52
2018-03-18T14:27:47.338Z,1023.50
2018-03-18T14:29:14.543Z,1023.53
2018-03-18T14:30:41.562Z,1023.52
2018-03-18T14:32:08.526Z,1023.52
2018-03-18T14:33:35.583Z,1023.53
2018-03-18T14:35:02.738Z,1023.49
2018-03-18T14:36:29.998Z,1023.49
2018-03-18T14:37:57.008Z,1023.53
2018-03-18T14:39:24.184Z,1023.52
2018-03-18T14:40:51.377Z,1023.51
2018-03-18T14:42:18.505Z,1023.49
2018-03-18T14:43:45.602Z,1023.50
2018-03-18T14:45:12.736Z,1023.52
2018-03-18T14:46:39.960Z,1023.52
2018-03-18T14:48:07.013Z,1023.52
2018-03-18T14:49:34.140Z,1023.50
2018-03-18T14:51:01.264Z,1023.52
2018-03-18T14:52:28.453Z,1023.51
2018-03-18T14:53:55.526Z,1023.54
2018-03-18T14:55:22.671Z,1023.47
2018-03-18T14:56:49.861Z,1023.52
2018-03-18T14:58:16.909Z,1023.52
2018-03-18T14:59:44.111Z,1023.51
2018-03-18T15:01:11.054Z,1023.51
2018-03-18T15:02:38.070Z,1023.49
2018-03-18T15:04:05.158Z,1023.47
2018-03-18T15:05:32.068Z,1023.41
2018-03-18T15:06:59.239Z,1023.45
2018-03-18T15:08:26.388Z,1023.47
2018-03-18T15:09:53.645Z,1023.43
2018-03-18T15:11:20.755Z,1023.39
2018-03-18T15:12:47.872Z,1023.41
2018-03-18T15:14:14.983Z,1023.42
2018-03-18T15:15:42.015Z,1023.37
2018-03-18T15:17:09.109Z,1023.40
2018-03-18T15:18:36.355Z,1023.42
2018-03-18T15:20:03.600Z,1023.41
2018-03-18T15:21:30.739Z,1023.38
2018-03-18T15:22:57.840Z,1023.36
2018-03-18T15:24:24.949Z,1023.36
2018-03-18T15:25:51.936Z,1023.36
2018-03-18T15:27:19.037Z,1023.31
2018-03-18T15:28:46.234Z,1023.30
2018-03-18T15:30:13.279Z,1023.28
2018-03-18T15:31:40.249Z,1023.28
2018-03-18T15:33:07.316Z,1023.26
2018-03-18T15:34:34.438Z,1023.29
2018-03-18T15:36:01.452Z,1023.28
2018-03-18T15:37:28.671Z,1023.31
2018-03-18T15:38:55.785Z,1023.29
2018-03-18T15:40:22.741Z,1023.27
2018-03-18T15:41:49.847Z,1023.24
2018-03-18T15:43:16.887Z,1023.27
2018-03-18T15:44:44.071Z,1023.25
2018-03-18T15:46:11.082Z,1023.33
2018-03-18T15:47:38.188Z,1023.30
2018-03-18T15:49:05.372Z,1023.31
2018-03-18T15:50:32.485Z,1023.23
2018-03-18T15:51:59.447Z,1023.27
2018-03-18T15:53:26.798Z,1023.28
2018-03-18T15:54:53.862Z,1023.32
2018-03-18T15:56:20.850Z,1023.33
2018-03-18T15:57:48.051Z,1023.33
2018-03-18T15:59:15.031Z,1023.33
2018-03-18T16:00:42.023Z,1023.34
2018-03-18T16:02:09.065Z,1023.34
2018-03-18T16:03:35.962Z,1023.30
2018-03-18T16:05:03.259Z,1023.29
2018-03-18T16:06:30.469Z,1023.29
2018-03-18T16:07:57.737Z,1023.30
2018-03-18T16:09:24.724Z,1023.28
2018-03-18T16:10:51.800Z,1023.29
2018-03-18T16:12:18.850Z,1023.29
2018-03-18T16:13:45.931Z,1023.29
2018-03-18T16:15:13.104Z,1023.30
2018-03-18T16:16:40.106Z,1023.30
2018-03-18T16:18:06.746Z,1023.27
2018-03-18T16:19:33.727Z,1023.29
2018-03-18T16:21:00.946Z,1023.28
2018-03-18T16:22:27.997Z,1023.28
2018-03-18T16:23:55.133Z,1023.26
2018-03-18T16:25:22.081Z,1023.23
2018-03-18T16:26:49.214Z,1023.28
2018-03-18T16:28:16.325Z,1023.28
2018-03-18T16:29:43.312Z,1023.26
2018-03-18T16:31:10.387Z,1023.24
2018-03-18T16:32:37.197Z,1023.26
2018-03-18T16:34:04.392Z,1023.27
2018-03-18T16:35:31.464Z,1023.28
2018-03-18T16:36:58.637Z,1023.27
2018-03-18T16:38:25.744Z,1023.27
2018-03-18T16:39:53.858Z,1023.23
2018-03-18T16:41:19.750Z,1023.26
2018-03-18T16:42:46.968Z,1023.25
2018-03-18T16:44:14.130Z,1023.27
2018-03-18T16:45:41.248Z,1023.29
2018-03-18T16:47:08.318Z,1023.30
2018-03-18T16:48:35.458Z,1023.32
2018-03-18T16:50:02.472Z,1023.34
2018-03-18T16:51:29.570Z,1023.30
2018-03-18T16:52:56.584Z,1023.34
2018-03-18T16:54:23.893Z,1023.34
2018-03-18T16:55:51.012Z,1023.36
2018-03-18T16:57:18.109Z,1023.34
2018-03-18T16:58:45.155Z,1023.36
2018-03-18T17:00:12.487Z,1023.36
2018-03-18T17:01:39.328Z,1023.37
2018-03-18T17:03:06.252Z,1023.36
2018-03-18T17:04:33.370Z,1023.33
2018-03-18T17:06:00.292Z,1023.35
2018-03-18T17:07:27.544Z,1023.37
2018-03-18T17:08:54.627Z,1023.36
2018-03-18T17:10:21.916Z,1023.39
2018-03-18T17:11:48.945Z,1023.39
2018-03-18T17:13:15.829Z,1023.43
2018-03-18T17:14:42.842Z,1023.45
2018-03-18T17:16:09.788Z,1023.43
2018-03-18T17:17:36.581Z,1023.45
2018-03-18T17:19:03.842Z,1023.43
2018-03-18T17:20:30.963Z,1023.43
2018-03-18T17:21:57.910Z,1023.44
2018-03-18T17:23:25.023Z,1023.41
2018-03-18T17:24:52.229Z,1023.40
2018-03-18T17:26:19.401Z,1023.43
2018-03-18T17:27:46.315Z,1023.43
2018-03-18T17:29:13.279Z,1023.40
2018-03-18T17:30:40.450Z,1023.39
2018-03-18T17:32:07.378Z,1023.43